createdAt,value
2024-05-09T00:00:22.058Z,6.35
2024-05-09T00:02:53.136Z,8.63
2024-05-09T00:05:19.985Z,9.30
2024-05-09T00:07:46.745Z,8.38
2024-05-09T00:10:22.344Z,7.03
2024-05-09T00:12:55.776Z,7.35
2024-05-09T00:15:22.465Z,6.90
2024-05-09T00:17:49.457Z,11.45
2024-05-09T00:20:20.643Z,11.25
2024-05-09T00:22:54.555Z,7.43
2024-05-09T00:25:21.242Z,8.02
2024-05-09T00:27:47.880Z,11.18
2024-05-09T00:30:21.469Z,6.95
2024-05-09T00:32:55.251Z,11.93
2024-05-09T00:35:22.215Z,8.48
2024-05-09T00:37:48.999Z,5.97
2024-05-09T00:40:22.974Z,8.82
2024-05-09T00:42:57.828Z,9.75
2024-05-09T00:45:24.452Z,7.15
2024-05-09T00:47:51.408Z,8.90
2024-05-09T00:50:22.869Z,7.10
2024-05-09T00:52:56.796Z,9.10
2024-05-09T00:55:24.152Z,6.32
2024-05-09T00:57:51.486Z,6.13
2024-05-09T01:00:26.715Z,10.50
2024-05-09T01:02:59.129Z,7.20
2024-05-09T01:05:25.911Z,11.63
2024-05-09T01:07:52.601Z,8.50
2024-05-09T01:10:27.579Z,8.68
2024-05-09T01:12:59.088Z,6.13
2024-05-09T01:15:25.743Z,7.10
2024-05-09T01:17:55.714Z,7.22
2024-05-09T01:20:31.832Z,9.10
2024-05-09T01:23:07.688Z,6.53
2024-05-09T01:25:35.443Z,10.30
2024-05-09T01:28:02.200Z,6.57
2024-05-09T01:30:34.614Z,5.85
2024-05-09T01:33:04.693Z,7.13
2024-05-09T01:35:32.420Z,12.20
2024-05-09T01:37:59.231Z,6.07
2024-05-09T01:40:36.139Z,9.25
2024-05-09T01:43:05.879Z,12.38
2024-05-09T01:45:33.068Z,8.35
2024-05-09T01:48:00.124Z,6.53
2024-05-09T01:50:36.915Z,6.43
2024-05-09T01:53:07.303Z,7.40
2024-05-09T01:55:34.023Z,7.60
2024-05-09T01:58:00.700Z,6.38
2024-05-09T02:00:37.801Z,6.05
2024-05-09T02:03:15.005Z,5.75
2024-05-09T02:05:47.569Z,7.85
2024-05-09T02:08:21.714Z,11.25
2024-05-09T02:10:49.862Z,6.95
2024-05-09T02:13:17.169Z,8.73
2024-05-09T02:15:44.184Z,7.75
2024-05-09T02:18:11.565Z,7.53
2024-05-09T02:20:40.742Z,6.43
2024-05-09T02:23:08.607Z,7.13
2024-05-09T02:25:35.611Z,7.03
2024-05-09T02:28:02.314Z,8.77
2024-05-09T02:30:38.274Z,7.57
2024-05-09T02:33:09.259Z,10.38
2024-05-09T02:35:37.145Z,9.90
2024-05-09T02:38:04.543Z,7.68
2024-05-09T02:40:37.508Z,5.75
2024-05-09T02:43:07.300Z,7.35
2024-05-09T02:45:34.303Z,10.88
2024-05-09T02:48:01.946Z,13.55
2024-05-09T02:50:37.138Z,9.15
2024-05-09T02:53:10.044Z,8.55
2024-05-09T02:55:40.877Z,12.02
2024-05-09T02:58:08.256Z,9.25
2024-05-09T03:00:39.435Z,11.70
2024-05-09T03:03:10.781Z,23.60
2024-05-09T03:05:40.078Z,11.27
2024-05-09T03:08:07.972Z,13.40
2024-05-09T03:10:37.035Z,8.90
2024-05-09T03:13:09.323Z,12.27
2024-05-09T03:15:36.399Z,9.52
2024-05-09T03:18:04.712Z,7.63
2024-05-09T03:20:34.924Z,6.80
2024-05-09T03:23:04.081Z,9.05
2024-05-09T03:25:31.007Z,7.18
2024-05-09T03:27:57.664Z,10.00
2024-05-09T03:30:36.661Z,7.43
2024-05-09T03:33:17.687Z,7.25
2024-05-09T03:35:46.071Z,7.75
2024-05-09T03:38:13.026Z,7.30
2024-05-09T03:40:46.948Z,9.15
2024-05-09T03:43:14.453Z,8.43
2024-05-09T03:45:42.492Z,10.50
2024-05-09T03:48:09.408Z,7.90
2024-05-09T03:50:37.131Z,9.93
2024-05-09T03:53:04.708Z,14.05
2024-05-09T03:55:31.606Z,10.30
2024-05-09T03:57:58.509Z,13.00
2024-05-09T04:00:31.220Z,7.03
2024-05-09T04:03:06.250Z,10.43
2024-05-09T04:05:34.991Z,6.07
2024-05-09T04:08:01.994Z,14.90
2024-05-09T04:10:33.498Z,11.45
2024-05-09T04:13:01.869Z,9.90
2024-05-09T04:15:28.766Z,6.72
2024-05-09T04:17:55.977Z,13.48
2024-05-09T04:20:33.335Z,7.32
2024-05-09T04:23:06.193Z,10.48
2024-05-09T04:25:33.318Z,11.52
2024-05-09T04:28:00.043Z,8.05
2024-05-09T04:30:36.002Z,12.10
2024-05-09T04:33:07.764Z,17.48
2024-05-09T04:35:36.064Z,10.50
2024-05-09T04:38:03.590Z,10.38
2024-05-09T04:40:34.317Z,11.48
2024-05-09T04:43:07.179Z,12.73
2024-05-09T04:45:34.305Z,13.52
2024-05-09T04:48:01.787Z,13.73
2024-05-09T04:50:35.648Z,13.55
2024-05-09T04:53:06.367Z,15.32
2024-05-09T04:55:33.900Z,12.52
2024-05-09T04:58:01.135Z,14.88
2024-05-09T05:00:35.574Z,20.60
2024-05-09T05:03:07.364Z,17.95
2024-05-09T05:05:40.206Z,17.80
2024-05-09T05:08:17.740Z,18.15
2024-05-09T05:10:46.111Z,18.58
2024-05-09T05:13:18.491Z,17.20
2024-05-09T05:15:46.793Z,18.10
2024-05-09T05:18:15.448Z,25.42
2024-05-09T05:20:43.065Z,18.15
2024-05-09T05:23:18.778Z,14.82
2024-05-09T05:25:48.088Z,11.20
2024-05-09T05:28:18.008Z,11.88
2024-05-09T05:30:45.715Z,8.65
2024-05-09T05:33:15.266Z,11.57
2024-05-09T05:35:42.482Z,13.55
2024-05-09T05:38:10.784Z,8.40
2024-05-09T05:40:38.940Z,10.45
2024-05-09T05:43:11.037Z,6.35
2024-05-09T05:45:38.595Z,6.97
2024-05-09T05:48:07.016Z,16.92
2024-05-09T05:50:37.281Z,6.78
2024-05-09T05:53:09.975Z,7.40
2024-05-09T05:55:39.191Z,6.40
2024-05-09T05:58:09.216Z,11.45
2024-05-09T06:00:39.034Z,6.85
2024-05-09T06:03:07.907Z,11.32
2024-05-09T06:05:36.961Z,6.93
2024-05-09T06:08:04.212Z,6.75
2024-05-09T06:10:37.831Z,7.88
2024-05-09T06:13:07.409Z,7.43
2024-05-09T06:15:34.358Z,11.98
2024-05-09T06:18:01.679Z,7.80
2024-05-09T06:20:35.555Z,7.20
2024-05-09T06:23:08.453Z,8.00
2024-05-09T06:25:36.331Z,13.98
2024-05-09T06:28:03.294Z,8.50
2024-05-09T06:30:37.535Z,8.18
2024-05-09T06:33:08.860Z,11.98
2024-05-09T06:35:37.216Z,10.82
2024-05-09T06:38:04.707Z,9.70
2024-05-09T06:40:37.804Z,8.45
2024-05-09T06:43:18.310Z,6.90
2024-05-09T06:45:48.255Z,14.00
2024-05-09T06:48:19.184Z,8.32
2024-05-09T06:50:46.678Z,13.82
2024-05-09T06:53:14.788Z,9.52
2024-05-09T06:55:41.621Z,10.32
2024-05-09T06:58:09.285Z,10.23
2024-05-09T07:00:39.752Z,7.65
2024-05-09T07:03:13.990Z,7.15
2024-05-09T07:05:43.383Z,10.10
2024-05-09T07:08:10.417Z,10.45
2024-05-09T07:10:37.685Z,10.95
2024-05-09T07:13:12.561Z,7.47
2024-05-09T07:15:40.664Z,10.73
2024-05-09T07:18:18.743Z,12.20
2024-05-09T07:20:47.619Z,6.93
2024-05-09T07:23:15.534Z,11.98
2024-05-09T07:25:43.146Z,7.35
2024-05-09T07:28:14.276Z,8.45
2024-05-09T07:30:41.725Z,8.07
2024-05-09T07:33:08.821Z,12.70
2024-05-09T07:35:35.913Z,11.48
2024-05-09T07:38:02.764Z,7.85
2024-05-09T07:40:35.765Z,9.48
2024-05-09T07:43:13.237Z,7.80
2024-05-09T07:45:49.904Z,7.45
2024-05-09T07:53:39.013Z,16.75
2024-05-09T07:56:09.371Z,6.38
2024-05-09T07:58:37.024Z,10.65
2024-05-09T08:01:03.955Z,7.35
2024-05-09T08:03:31.451Z,8.23
2024-05-09T08:05:58.175Z,7.25
2024-05-09T08:08:25.539Z,6.80
2024-05-09T08:10:52.285Z,9.00
2024-05-09T08:13:19.061Z,6.53
2024-05-09T08:15:45.916Z,8.10
2024-05-09T08:18:12.810Z,9.80
2024-05-09T08:20:41.175Z,11.30
2024-05-09T08:23:08.201Z,13.07
2024-05-09T08:25:34.838Z,10.82
2024-05-09T08:28:03.618Z,9.70
2024-05-09T08:30:36.348Z,11.70
2024-05-09T08:33:06.292Z,5.03
2024-05-09T08:35:34.553Z,7.07
2024-05-09T08:38:03.055Z,7.55
2024-05-09T08:40:35.645Z,6.72
2024-05-09T08:43:10.078Z,5.95
2024-05-09T08:45:42.630Z,7.57
2024-05-09T08:48:12.882Z,6.35
2024-05-09T08:50:41.446Z,14.35
2024-05-09T08:53:09.032Z,5.00
2024-05-09T08:55:40.516Z,9.25
2024-05-09T08:58:14.274Z,7.00
2024-05-09T09:00:43.119Z,5.47
2024-05-09T09:03:15.145Z,9.05
2024-05-09T09:05:51.581Z,5.32
2024-05-09T09:08:18.780Z,5.82
2024-05-09T09:10:47.668Z,5.25
2024-05-09T09:13:23.856Z,4.60
2024-05-09T09:15:50.920Z,4.75
2024-05-09T09:18:18.711Z,4.93
2024-05-09T09:20:45.849Z,4.80
2024-05-09T09:23:12.613Z,5.00
2024-05-09T09:25:40.516Z,5.85
2024-05-09T09:28:08.352Z,5.35
2024-05-09T09:30:38.883Z,5.40
2024-05-09T09:33:06.863Z,6.57
2024-05-09T09:35:35.856Z,4.97
2024-05-09T09:38:04.435Z,7.32
2024-05-09T09:40:37.207Z,4.50
2024-05-09T09:43:14.862Z,6.45
2024-05-09T09:45:44.167Z,4.80
2024-05-09T09:48:13.741Z,4.20
2024-05-09T09:50:42.178Z,6.65
2024-05-09T09:53:09.983Z,9.68
2024-05-09T09:55:37.580Z,3.53
2024-05-09T09:58:06.401Z,3.88
2024-05-09T10:00:34.539Z,4.35
2024-05-09T10:03:02.268Z,6.30
2024-05-09T10:05:30.156Z,4.03
2024-05-09T10:07:58.550Z,6.85
2024-05-09T10:10:32.164Z,3.33
2024-05-09T10:13:09.031Z,3.33
2024-05-09T10:15:52.635Z,5.68
2024-05-09T10:18:28.199Z,11.43
2024-05-09T10:20:57.469Z,4.28
2024-05-09T10:23:29.090Z,3.17
2024-05-09T10:26:04.317Z,3.72
2024-05-09T10:28:32.900Z,3.47
2024-05-09T10:31:11.136Z,4.43
2024-05-09T10:33:50.325Z,3.85
2024-05-09T10:36:23.007Z,4.95
2024-05-09T10:38:51.530Z,2.38
2024-05-09T10:41:20.523Z,4.47
2024-05-09T10:43:47.845Z,3.50
2024-05-09T10:46:15.227Z,3.60
2024-05-09T10:48:44.304Z,5.65
2024-05-09T10:51:11.764Z,2.83
2024-05-09T10:53:45.918Z,2.20
2024-05-09T10:58:42.204Z,4.03
2024-05-09T11:01:09.991Z,2.67
2024-05-09T11:03:37.890Z,3.10
2024-05-09T11:06:06.775Z,3.35
2024-05-09T11:08:35.952Z,2.70
2024-05-09T11:11:06.755Z,2.42
2024-05-09T11:13:36.974Z,2.05
2024-05-09T11:16:06.628Z,2.88
2024-05-09T11:18:37.920Z,3.67
2024-05-09T11:21:12.290Z,4.78
2024-05-09T11:23:39.297Z,3.47
2024-05-09T11:26:07.237Z,2.65
2024-05-09T11:28:33.966Z,2.45
2024-05-09T11:31:09.461Z,1.88
2024-05-09T11:33:38.953Z,4.10
2024-05-09T11:36:07.600Z,2.92
2024-05-09T11:38:34.559Z,1.45
2024-05-09T11:41:02.651Z,1.92
2024-05-09T11:43:29.449Z,2.50
2024-05-09T11:45:59.341Z,4.72
2024-05-09T11:48:26.786Z,1.83
2024-05-09T11:50:55.545Z,1.85
2024-05-09T11:53:22.465Z,1.60
2024-05-09T11:55:49.225Z,2.28
2024-05-09T11:58:18.104Z,2.25
2024-05-09T12:00:46.117Z,3.38
2024-05-09T12:03:13.063Z,1.70
2024-05-09T12:05:39.862Z,4.30
2024-05-09T12:08:07.280Z,5.30
2024-05-09T12:10:36.126Z,2.00
2024-05-09T12:13:06.183Z,2.38
2024-05-09T12:15:37.435Z,1.02
2024-05-09T12:18:05.910Z,1.17
2024-05-09T12:20:37.534Z,2.45
2024-05-09T12:23:06.949Z,4.00
2024-05-09T12:25:34.914Z,1.55
2024-05-09T12:28:01.943Z,1.73
2024-05-09T12:30:36.149Z,1.88
2024-05-09T12:33:08.400Z,1.00
2024-05-09T12:35:35.535Z,2.55
2024-05-09T12:38:02.530Z,1.27
2024-05-09T12:40:35.832Z,1.17
2024-05-09T12:43:09.154Z,4.18
2024-05-09T12:45:37.503Z,3.83
2024-05-09T12:48:07.446Z,3.08
2024-05-09T12:50:35.077Z,2.28
2024-05-09T12:53:03.159Z,4.20
2024-05-09T12:55:37.313Z,3.50
2024-05-09T12:58:12.029Z,3.05
2024-05-09T13:00:39.228Z,1.85
2024-05-09T13:03:06.349Z,6.60
2024-05-09T13:05:33.380Z,2.60
2024-05-09T13:08:00.981Z,1.52
2024-05-09T13:10:32.150Z,2.47
2024-05-09T13:13:01.523Z,4.68
2024-05-09T13:15:30.244Z,4.07
2024-05-09T13:18:00.451Z,4.57
2024-05-09T13:20:33.553Z,2.55
2024-05-09T13:23:07.297Z,6.35
2024-05-09T13:25:35.291Z,1.23
2024-05-09T13:28:02.987Z,2.65
2024-05-09T13:30:38.501Z,1.58
2024-05-09T13:33:08.982Z,3.22
2024-05-09T13:35:36.278Z,2.53
2024-05-09T13:38:04.165Z,1.10
2024-05-09T13:40:34.520Z,4.10
2024-05-09T13:43:06.653Z,1.40
2024-05-09T13:45:34.382Z,1.90
2024-05-09T13:48:02.552Z,1.30
2024-05-09T13:50:35.739Z,1.52
2024-05-09T13:55:33.592Z,1.23
2024-05-09T13:58:00.903Z,1.63
2024-05-09T14:00:41.328Z,2.05
2024-05-09T14:03:14.582Z,2.55
2024-05-09T14:05:41.841Z,2.85
2024-05-09T14:08:08.948Z,2.00
2024-05-09T14:10:35.959Z,1.20
2024-05-09T14:13:02.934Z,2.20
2024-05-09T14:15:29.682Z,1.33
2024-05-09T14:17:56.517Z,1.20
2024-05-09T14:20:30.412Z,4.78
2024-05-09T14:22:59.787Z,2.28
2024-05-09T14:25:31.921Z,5.15
2024-05-09T14:27:59.012Z,3.42
2024-05-09T14:30:34.504Z,2.97
2024-05-09T14:33:05.727Z,3.45
2024-05-09T14:35:33.189Z,1.95
2024-05-09T14:38:00.050Z,5.40
2024-05-09T14:40:37.162Z,3.10
2024-05-09T14:43:08.609Z,2.30
2024-05-09T14:45:35.745Z,2.83
2024-05-09T14:48:03.350Z,8.90
2024-05-09T14:50:36.054Z,2.28
2024-05-09T14:53:07.189Z,1.60
2024-05-09T14:55:39.267Z,2.30
2024-05-09T14:58:07.502Z,3.45
2024-05-09T15:00:46.094Z,2.33
2024-05-09T15:03:17.066Z,1.48
2024-05-09T15:05:44.959Z,2.90
2024-05-09T15:08:11.693Z,1.45
2024-05-09T15:10:39.081Z,1.60
2024-05-09T15:13:08.091Z,1.33
2024-05-09T15:15:36.824Z,4.47
2024-05-09T15:18:07.157Z,0.98
2024-05-09T15:20:36.737Z,2.17
2024-05-09T15:23:06.540Z,1.58
2024-05-09T15:25:36.648Z,2.38
2024-05-09T15:28:04.651Z,0.70
2024-05-09T15:30:33.588Z,2.00
2024-05-09T15:33:05.337Z,0.80
2024-05-09T15:35:33.511Z,1.17
2024-05-09T15:38:02.772Z,1.00
2024-05-09T15:40:37.229Z,1.27
2024-05-09T15:43:07.920Z,1.20
2024-05-09T15:45:35.655Z,1.20
2024-05-09T15:48:03.333Z,1.08
2024-05-09T15:50:37.204Z,1.85
2024-05-09T15:53:08.726Z,3.40
2024-05-09T15:55:36.342Z,2.83
2024-05-09T15:58:04.204Z,0.60
2024-05-09T16:03:01.281Z,0.70
2024-05-09T16:05:28.142Z,0.85
2024-05-09T16:07:55.188Z,1.23
2024-05-09T16:10:26.059Z,2.35
2024-05-09T16:12:59.208Z,1.92
2024-05-09T16:15:26.087Z,1.52
2024-05-09T16:17:53.463Z,5.75
2024-05-09T16:20:33.227Z,2.22
2024-05-09T16:23:05.189Z,2.72
2024-05-09T16:25:31.840Z,3.80
2024-05-09T16:27:58.589Z,1.98
2024-05-09T16:30:32.012Z,2.30
2024-05-09T16:33:02.828Z,1.00
2024-05-09T16:35:29.738Z,1.73
2024-05-09T16:37:56.446Z,1.90
2024-05-09T16:40:30.343Z,1.85
2024-05-09T16:43:04.428Z,1.05
2024-05-09T16:45:31.628Z,0.68
2024-05-09T16:47:59.721Z,5.45
2024-05-09T16:50:32.317Z,1.25
2024-05-09T16:53:01.223Z,2.05
2024-05-09T16:55:28.023Z,5.32
2024-05-09T16:57:56.314Z,1.40
2024-05-09T17:00:34.815Z,2.95
2024-05-09T17:03:07.635Z,1.15
2024-05-09T17:05:35.389Z,1.48
2024-05-09T17:08:02.792Z,1.30
2024-05-09T17:10:33.337Z,1.65
2024-05-09T17:13:06.479Z,1.80
2024-05-09T17:15:50.081Z,1.17
2024-05-09T17:18:17.133Z,2.25
2024-05-09T17:20:43.824Z,1.83
2024-05-09T17:23:13.978Z,2.45
2024-05-09T17:25:41.564Z,2.65
2024-05-09T17:28:09.550Z,0.60
2024-05-09T17:30:38.473Z,3.55
2024-05-09T17:33:08.783Z,1.20
2024-05-09T17:35:36.485Z,1.77
2024-05-09T17:38:04.282Z,2.05
2024-05-09T17:40:34.925Z,2.03
2024-05-09T17:43:05.039Z,1.27
2024-05-09T17:45:32.632Z,4.32
2024-05-09T17:48:00.088Z,4.63
2024-05-09T17:50:35.127Z,1.80
2024-05-09T17:53:04.362Z,2.35
2024-05-09T17:55:31.164Z,3.30
2024-05-09T17:57:58.222Z,1.70
2024-05-09T18:00:36.371Z,0.73
2024-05-09T18:03:07.043Z,1.50
2024-05-09T18:05:35.967Z,2.55
2024-05-09T18:08:03.598Z,2.90
2024-05-09T18:10:36.325Z,4.38
2024-05-09T18:13:06.333Z,2.28
2024-05-09T18:15:33.667Z,0.57
2024-05-09T18:18:01.588Z,1.30
2024-05-09T18:20:37.839Z,0.95
2024-05-09T18:23:10.875Z,1.00
2024-05-09T18:25:37.880Z,2.65
2024-05-09T18:28:05.209Z,0.93
2024-05-09T18:30:35.567Z,1.33
2024-05-09T18:33:08.171Z,2.15
2024-05-09T18:35:36.336Z,1.88
2024-05-09T18:38:05.648Z,3.00
2024-05-09T18:40:36.069Z,1.63
2024-05-09T18:43:06.854Z,1.88
2024-05-09T18:45:35.633Z,3.03
2024-05-09T18:48:03.962Z,2.35
2024-05-09T18:50:35.832Z,1.05
2024-05-09T18:53:06.264Z,0.85
2024-05-09T18:55:33.280Z,3.42
2024-05-09T18:58:00.360Z,0.73
2024-05-09T19:00:34.333Z,2.97
2024-05-09T19:03:06.193Z,1.52
2024-05-09T19:05:35.912Z,2.75
2024-05-09T19:08:03.576Z,2.75
2024-05-09T19:10:34.417Z,3.17
2024-05-09T19:13:07.299Z,3.92
2024-05-09T19:15:38.313Z,2.67
2024-05-09T19:18:06.051Z,2.83
2024-05-09T19:20:35.580Z,4.25
2024-05-09T19:23:04.633Z,4.68
2024-05-09T19:25:32.078Z,2.55
2024-05-09T19:28:00.467Z,6.65
2024-05-09T19:30:36.656Z,3.53
2024-05-09T19:33:07.595Z,2.05
2024-05-09T19:35:35.030Z,4.93
2024-05-09T19:38:02.248Z,2.38
2024-05-09T19:40:32.157Z,1.63
2024-05-09T19:43:05.802Z,3.00
2024-05-09T19:45:35.156Z,2.70
2024-05-09T19:48:03.522Z,2.28
2024-05-09T19:50:37.341Z,2.40
2024-05-09T19:53:10.117Z,2.80
2024-05-09T19:55:37.291Z,3.33
2024-05-09T19:58:05.635Z,2.47
2024-05-09T20:00:40.310Z,2.63
2024-05-09T20:03:09.975Z,1.23
2024-05-09T20:05:39.278Z,1.40
2024-05-09T20:08:06.885Z,4.45
2024-05-09T20:10:36.512Z,2.47
2024-05-09T20:13:05.442Z,1.25
2024-05-09T20:15:35.119Z,2.63
2024-05-09T20:18:03.178Z,3.80
2024-05-09T20:20:37.386Z,5.25
2024-05-09T20:23:08.630Z,2.88
2024-05-09T20:25:35.411Z,5.28
2024-05-09T20:28:02.394Z,6.13
2024-05-09T20:30:32.798Z,4.28
2024-05-09T20:33:03.069Z,6.07
2024-05-09T20:35:34.008Z,8.65
2024-05-09T20:38:01.947Z,3.38
2024-05-09T20:40:33.916Z,3.63
2024-05-09T20:43:04.455Z,3.78
2024-05-09T20:45:31.308Z,6.72
2024-05-09T20:47:58.321Z,2.45
2024-05-09T20:50:35.595Z,3.40
2024-05-09T20:53:14.608Z,5.30
2024-05-09T20:55:45.365Z,2.95
2024-05-09T20:58:12.769Z,3.08
2024-05-09T21:00:43.804Z,1.60
2024-05-09T21:03:14.458Z,2.55
2024-05-09T21:05:42.819Z,2.10
2024-05-09T21:08:09.967Z,9.55
2024-05-09T21:10:37.309Z,3.03
2024-05-09T21:13:05.119Z,5.45
2024-05-09T21:15:32.551Z,3.50
2024-05-09T21:17:59.560Z,4.20
2024-05-09T21:20:31.734Z,5.25
2024-05-09T21:23:00.653Z,2.70
2024-05-09T21:25:27.655Z,7.40
2024-05-09T21:27:54.610Z,2.80
2024-05-09T21:30:32.056Z,4.97
2024-05-09T21:33:13.732Z,3.42
2024-05-09T21:35:43.429Z,3.50
2024-05-09T21:38:11.004Z,5.95
2024-05-09T21:40:38.596Z,5.70
2024-05-09T21:43:07.716Z,4.63
2024-05-09T21:45:35.096Z,4.90
2024-05-09T21:48:06.400Z,4.00
2024-05-09T21:50:39.794Z,2.97
2024-05-09T21:53:09.224Z,6.15
2024-05-09T21:55:35.975Z,4.00
2024-05-09T21:58:03.140Z,7.65
2024-05-09T22:00:36.144Z,10.93
2024-05-09T22:03:09.494Z,15.15
2024-05-09T22:05:38.022Z,7.43
2024-05-09T22:08:05.377Z,4.38
2024-05-09T22:10:34.988Z,4.78
2024-05-09T22:13:04.877Z,3.67
2024-05-09T22:15:35.737Z,4.57
2024-05-09T22:18:03.467Z,4.95
2024-05-09T22:20:36.701Z,3.88
2024-05-09T22:23:05.650Z,4.45
2024-05-09T22:25:33.024Z,4.20
2024-05-09T22:28:01.482Z,1.98
2024-05-09T22:30:35.748Z,2.65
2024-05-09T22:33:10.192Z,7.35
2024-05-09T22:35:38.910Z,5.22
2024-05-09T22:38:05.967Z,5.72
2024-05-09T22:40:42.830Z,3.33
2024-05-09T22:43:18.371Z,2.92
2024-05-09T22:45:46.249Z,4.30
2024-05-09T22:48:13.302Z,2.78
2024-05-09T22:50:40.873Z,3.67
2024-05-09T22:53:07.587Z,2.83
2024-05-09T22:55:34.425Z,3.63
2024-05-09T22:58:01.278Z,3.40
2024-05-09T23:00:31.765Z,3.97
2024-05-09T23:03:02.622Z,4.65
2024-05-09T23:05:30.617Z,6.95
2024-05-09T23:07:57.497Z,5.72
2024-05-09T23:10:32.036Z,7.70
2024-05-09T23:13:03.476Z,7.03
2024-05-09T23:15:30.475Z,6.85
2024-05-09T23:17:57.843Z,4.10
2024-05-09T23:22:54.404Z,4.20
2024-05-09T23:25:21.080Z,4.55
2024-05-09T23:27:47.906Z,3.22
2024-05-09T23:30:28.260Z,2.35
2024-05-09T23:33:01.115Z,2.58
2024-05-09T23:35:28.019Z,2.20
2024-05-09T23:37:54.672Z,2.67
2024-05-09T23:40:23.342Z,2.08
2024-05-09T23:42:50.667Z,1.98
2024-05-09T23:45:17.323Z,1.58
2024-05-09T23:47:43.996Z,2.38
2024-05-09T23:50:16.841Z,2.40
2024-05-09T23:52:50.440Z,2.33
2024-05-09T23:55:17.364Z,2.58
2024-05-09T23:57:44.206Z,4.57
